createdAt,value
2022-09-03T00:32:28.651Z,0
2022-09-03T00:36:27.088Z,0
2022-09-03T00:37:21.776Z,0
2022-09-03T00:38:21.059Z,0
2022-09-03T00:42:40.872Z,0
2022-09-03T00:43:27.283Z,0
2022-09-03T01:52:29.788Z,0
2022-09-03T01:53:20.531Z,0
2022-09-03T01:54:25.488Z,0
2022-09-03T01:55:31.305Z,0
2022-09-03T01:56:55.582Z,0
2022-09-03T01:57:46.417Z,0
2022-09-03T01:58:28.349Z,0
2022-09-03T03:03:40.048Z,0
2022-09-03T03:12:23.357Z,0
2022-09-03T03:15:26.549Z,0
2022-09-03T03:22:30.413Z,0
2022-09-03T03:23:22.382Z,0
2022-09-03T03:25:35.956Z,0
2022-09-03T03:27:57.177Z,0
2022-09-03T03:32:22.927Z,0
2022-09-03T03:34:33.206Z,0
2022-09-03T03:35:30.723Z,0
2022-09-03T03:38:30.655Z,0
2022-09-03T03:39:22.349Z,0
2022-09-03T03:41:37.847Z,0
2022-09-03T03:44:24.966Z,0
2022-09-03T03:46:31.266Z,0
2022-09-03T03:48:32.106Z,0
2022-09-03T03:49:54.578Z,0
2022-09-03T03:51:20.742Z,0
2022-09-03T03:53:31.463Z,0
2022-09-03T04:25:25.058Z,0
2022-09-03T04:26:37.979Z,0
2022-09-03T04:30:41.262Z,0
2022-09-03T04:51:47.908Z,0
2022-09-03T04:52:34.871Z,0
2022-09-03T04:53:24.881Z,0
2022-09-03T04:54:31.992Z,0
2022-09-03T04:55:29.015Z,0
2022-09-03T04:56:29.209Z,0
2022-09-03T04:57:37.945Z,0
2022-09-03T04:58:53.678Z,0
2022-09-03T04:59:38.484Z,0
2022-09-03T05:01:34.759Z,0
2022-09-03T05:02:29.888Z,0
2022-09-03T05:03:21.571Z,0
2022-09-03T05:06:40.156Z,0
2022-09-03T05:10:26.466Z,0
2022-09-03T05:15:44.837Z,0
2022-09-03T06:01:31.874Z,0
2022-09-03T06:04:36.678Z,0
2022-09-03T06:22:41.369Z,0
2022-09-03T06:23:27.232Z,0
2022-09-03T06:24:41.322Z,0
2022-09-03T06:25:31.257Z,0
2022-09-03T06:27:24.989Z,0
2022-09-03T06:28:57.560Z,0
2022-09-03T06:31:40.747Z,0
2022-09-03T06:39:39.334Z,0
2022-09-03T07:19:26.596Z,0
2022-09-03T07:20:23.476Z,0
2022-09-03T07:21:23.352Z,0
2022-09-03T07:22:34.373Z,0
2022-09-03T07:23:25.469Z,0
2022-09-03T07:24:23.836Z,0
2022-09-03T07:25:31.671Z,0
2022-09-03T07:26:27.851Z,0
2022-09-03T07:27:26.647Z,0
2022-09-03T07:28:27.517Z,0
2022-09-03T07:29:32.637Z,0
2022-09-03T07:30:25.372Z,0
2022-09-03T07:31:22.423Z,0
2022-09-03T07:32:22.149Z,0
2022-09-03T07:33:29.722Z,0
2022-09-03T07:34:25.555Z,0
2022-09-03T07:35:28.925Z,0
2022-09-03T07:36:24.058Z,0
2022-09-03T07:37:27.160Z,0
2022-09-03T07:38:22.521Z,0
2022-09-03T07:39:23.856Z,0
2022-09-03T07:40:28.436Z,0
2022-09-03T07:41:27.094Z,0
2022-09-03T07:42:23.969Z,0
2022-09-03T07:43:31.073Z,0
2022-09-03T07:44:27.057Z,0
2022-09-03T07:45:21.398Z,0
2022-09-03T07:46:27.117Z,0
2022-09-03T07:47:27.801Z,0
2022-09-03T07:48:25.653Z,0
2022-09-03T07:49:28.447Z,0
2022-09-03T07:50:23.374Z,0
2022-09-03T07:51:25.173Z,0
2022-09-03T07:52:23.049Z,0
2022-09-03T07:53:29.450Z,0
2022-09-03T07:54:30.410Z,0
2022-09-03T07:55:24.844Z,0
2022-09-03T07:56:30.330Z,0
2022-09-03T07:57:25.304Z,0
2022-09-03T07:58:25.387Z,0
2022-09-03T07:59:21.209Z,0
2022-09-03T08:00:33.224Z,0
2022-09-03T08:01:19.839Z,0
2022-09-03T08:04:29.189Z,0
2022-09-03T08:05:25.638Z,0
2022-09-03T08:06:24.468Z,0
2022-09-03T08:07:35.951Z,0
2022-09-03T08:08:37.337Z,0
2022-09-03T08:09:24.299Z,0
2022-09-03T08:10:28.028Z,0
2022-09-03T08:11:32.802Z,0
2022-09-03T08:12:25.970Z,0
2022-09-03T08:13:21.579Z,0
2022-09-03T08:14:31.974Z,0
2022-09-03T08:15:22.329Z,0
2022-09-03T08:16:23.414Z,0
2022-09-03T08:17:36.499Z,0
2022-09-03T08:18:29.317Z,0
2022-09-03T08:19:21.541Z,0
2022-09-03T08:20:22.414Z,0
2022-09-03T08:21:28.109Z,0
2022-09-03T08:22:31.873Z,0
2022-09-03T08:23:23.445Z,0
2022-09-03T08:24:35.817Z,0
2022-09-03T08:25:31.150Z,0
2022-09-03T08:26:26.138Z,0
2022-09-03T08:27:29.744Z,0
2022-09-03T08:28:33.652Z,0
2022-09-03T08:29:27.202Z,0
2022-09-03T08:30:23.304Z,0
2022-09-03T08:31:33.842Z,0
2022-09-03T08:32:21.763Z,0
2022-09-03T08:33:27.405Z,0
2022-09-03T08:34:21.483Z,0
2022-09-03T08:35:25.159Z,0
2022-09-03T08:36:28.497Z,0
2022-09-03T08:37:23.271Z,0
2022-09-03T08:38:28.695Z,0
2022-09-03T08:39:30.606Z,0
2022-09-03T08:40:26.649Z,0
2022-09-03T08:41:22.431Z,0
2022-09-03T08:42:29.278Z,0
2022-09-03T08:43:27.841Z,0
2022-09-03T08:44:24.863Z,0
2022-09-03T08:45:35.685Z,0
2022-09-03T08:46:29.536Z,0
2022-09-03T08:47:30.007Z,0
2022-09-03T08:48:25.858Z,0
2022-09-03T08:49:24.367Z,0
2022-09-03T08:50:30.183Z,0
2022-09-03T08:51:24.264Z,0
2022-09-03T08:52:21.307Z,0
2022-09-03T08:53:32.634Z,0
2022-09-03T08:54:26.901Z,0
2022-09-03T08:55:24.035Z,0
2022-09-03T08:56:32.527Z,0
2022-09-03T08:57:33.447Z,0
2022-09-03T08:58:24.056Z,0
2022-09-03T08:59:19.045Z,0
2022-09-03T09:00:22.660Z,0
2022-09-03T09:01:28.750Z,0
2022-09-03T09:02:23.613Z,0
2022-09-03T09:03:31.508Z,0
2022-09-03T09:04:31.923Z,0
2022-09-03T09:05:26.405Z,0
2022-09-03T09:06:21.252Z,0
2022-09-03T09:07:29.457Z,0
2022-09-03T09:08:25.754Z,0
2022-09-03T09:09:23.886Z,0
2022-09-03T09:10:31.551Z,0
2022-09-03T09:11:27.396Z,0
2022-09-03T09:12:25.276Z,0
2022-09-03T09:13:21.088Z,0
2022-09-03T09:14:29.227Z,0
2022-09-03T09:15:27.905Z,0
2022-09-03T09:16:21.635Z,0
2022-09-03T09:17:25.468Z,0
2022-09-03T09:18:29.437Z,0
2022-09-03T09:19:24.234Z,0
2022-09-03T09:20:21.833Z,0
2022-09-03T09:21:22.614Z,0
2022-09-03T09:22:27.822Z,0
2022-09-03T09:23:29.607Z,0
2022-09-03T09:24:23.361Z,0
2022-09-03T09:25:28.407Z,0
2022-09-03T09:26:24.973Z,0
2022-09-03T09:27:20.649Z,0
2022-09-03T09:28:25.228Z,0
2022-09-03T09:29:27.581Z,0
2022-09-03T09:30:21.462Z,0
2022-09-03T09:31:25.549Z,0
2022-09-03T09:32:28.416Z,0
2022-09-03T09:33:27.749Z,0
2022-09-03T09:34:19.369Z,0
2022-09-03T09:35:22.230Z,0
2022-09-03T09:36:23.400Z,0
2022-09-03T09:37:22.491Z,0
2022-09-03T09:38:28.884Z,0
2022-09-03T09:39:28.731Z,0
2022-09-03T09:40:25.360Z,0
2022-09-03T09:41:19.278Z,0
2022-09-03T09:42:32.264Z,0
2022-09-03T09:43:22.628Z,0
2022-09-03T09:44:21.373Z,0
2022-09-03T09:45:25.927Z,0
2022-09-03T09:46:27.242Z,0
2022-09-03T09:47:27.779Z,0
2022-09-03T09:48:21.568Z,0
2022-09-03T09:49:35.011Z,0
2022-09-03T09:50:27.352Z,0
2022-09-03T09:51:22.745Z,0
2022-09-03T09:52:37.318Z,0
2022-09-03T09:53:21.217Z,0
2022-09-03T09:54:25.204Z,0
2022-09-03T09:55:20.297Z,0
2022-09-03T09:56:29.637Z,0
2022-09-03T09:57:25.883Z,0
2022-09-03T09:58:22.825Z,0
2022-09-03T09:59:22.257Z,0
2022-09-03T10:00:28.552Z,0
2022-09-03T10:01:25.721Z,0
2022-09-03T10:02:22.429Z,0
2022-09-03T10:03:32.999Z,0
2022-09-03T10:04:29.835Z,0
2022-09-03T10:05:22.926Z,0
2022-09-03T10:06:21.316Z,0
2022-09-03T10:07:27.499Z,0
2022-09-03T10:08:28.992Z,0
2022-09-03T10:09:19.389Z,0
2022-09-03T10:10:30.501Z,0
2022-09-03T10:11:24.585Z,0
2022-09-03T10:12:23.858Z,0
2022-09-03T10:13:23.519Z,0
2022-09-03T10:14:21.245Z,0
2022-09-03T10:15:24.126Z,0
2022-09-03T10:16:22.035Z,0
2022-09-03T10:17:37.352Z,0
2022-09-03T10:18:28.657Z,0
2022-09-03T10:19:26.680Z,0
2022-09-03T10:20:27.799Z,0
2022-09-03T10:21:23.804Z,0
2022-09-03T10:22:21.580Z,0
2022-09-03T10:23:21.516Z,0
2022-09-03T10:24:29.772Z,0
2022-09-03T10:25:32.611Z,0
2022-09-03T10:26:21.821Z,0
2022-09-03T10:27:37.994Z,0
2022-09-03T10:28:26.280Z,0
2022-09-03T10:29:23.670Z,0
2022-09-03T10:30:21.329Z,0
2022-09-03T10:31:30.657Z,0
2022-09-03T10:32:27.433Z,0
2022-09-03T10:33:24.932Z,0
2022-09-03T10:34:31.292Z,0
2022-09-03T10:35:29.468Z,0
2022-09-03T10:36:31.805Z,0
2022-09-03T10:37:36.998Z,0
2022-09-03T10:38:31.093Z,0
2022-09-03T10:39:32.526Z,0
2022-09-03T10:40:22.073Z,0
2022-09-03T10:41:20.637Z,0
2022-09-03T10:42:27.396Z,0
2022-09-03T10:43:26.974Z,0
2022-09-03T10:44:21.142Z,0
2022-09-03T10:45:29.569Z,0
2022-09-03T10:46:27.192Z,0
2022-09-03T10:47:21.476Z,0
2022-09-03T10:48:31.729Z,0
2022-09-03T10:49:38.360Z,0
2022-09-03T10:50:23.312Z,0
2022-09-03T10:51:23.640Z,0
2022-09-03T10:52:21.793Z,0
2022-09-03T10:53:29.139Z,0
2022-09-03T10:54:34.926Z,0
2022-09-03T10:55:31.640Z,0
2022-09-03T10:56:29.048Z,0
2022-09-03T10:57:25.806Z,0
2022-09-03T10:58:25.406Z,0
2022-09-03T10:59:19.764Z,0
2022-09-03T11:00:27.264Z,0
2022-09-03T11:01:21.366Z,0
2022-09-03T11:02:31.716Z,0
2022-09-03T11:03:29.886Z,0
2022-09-03T11:04:23.588Z,0
2022-09-03T11:05:21.076Z,0
2022-09-03T11:06:24.187Z,0
2022-09-03T11:07:21.946Z,0
2022-09-03T11:08:22.147Z,0
2022-09-03T11:09:20.067Z,0
2022-09-03T11:10:30.898Z,0
2022-09-03T11:11:23.735Z,0
2022-09-03T11:12:20.541Z,0
2022-09-03T11:13:30.704Z,0
2022-09-03T11:14:20.360Z,0
2022-09-03T11:15:27.569Z,0
2022-09-03T11:16:25.178Z,0
2022-09-03T11:17:29.794Z,0
2022-09-03T11:18:25.994Z,0
2022-09-03T11:19:21.748Z,0
2022-09-03T11:20:35.075Z,0
2022-09-03T11:21:28.008Z,0
2022-09-03T11:22:24.671Z,0
2022-09-03T11:23:26.605Z,0
2022-09-03T11:24:28.993Z,0
2022-09-03T11:25:23.629Z,0
2022-09-03T11:26:22.708Z,0
2022-09-03T11:27:21.129Z,0
2022-09-03T11:28:31.734Z,0
2022-09-03T11:29:37.744Z,0
2022-09-03T11:30:20.401Z,0
2022-09-03T11:31:27.569Z,0
2022-09-03T11:32:29.736Z,0
2022-09-03T11:33:20.531Z,0
2022-09-03T11:34:32.224Z,0
2022-09-03T11:35:26.846Z,0
2022-09-03T11:36:23.710Z,0
2022-09-03T11:37:24.396Z,0
2022-09-03T11:38:29.427Z,0
2022-09-03T11:39:23.613Z,0
2022-09-03T11:40:22.189Z,0
2022-09-03T11:41:30.418Z,0
2022-09-03T11:42:25.481Z,0
2022-09-03T11:43:23.476Z,0
2022-09-03T11:44:22.825Z,0
2022-09-03T11:45:28.348Z,0
2022-09-03T11:46:25.774Z,0
2022-09-03T11:47:19.627Z,0
2022-09-03T11:48:32.612Z,0
2022-09-03T11:49:30.218Z,0
2022-09-03T11:50:21.956Z,0
2022-09-03T11:51:26.484Z,0
2022-09-03T11:52:20.453Z,0
2022-09-03T11:53:25.519Z,0
2022-09-03T11:54:35.892Z,0
2022-09-03T11:55:43.458Z,0
2022-09-03T11:56:22.236Z,0
2022-09-03T11:57:21.465Z,0
2022-09-03T11:58:31.733Z,0
2022-09-03T11:59:23.474Z,0
2022-09-03T12:00:24.611Z,0
2022-09-03T12:01:19.805Z,0
2022-09-03T12:02:29.890Z,0
2022-09-03T12:03:26.813Z,0
2022-09-03T12:04:21.438Z,0
2022-09-03T12:05:34.978Z,0
2022-09-03T12:06:34.412Z,0
2022-09-03T12:07:23.407Z,0
2022-09-03T12:08:23.097Z,0
2022-09-03T12:09:31.492Z,0
2022-09-03T12:10:29.660Z,0
2022-09-03T12:11:45.725Z,0
2022-09-03T12:12:35.322Z,0
2022-09-03T12:13:28.105Z,0
2022-09-03T12:14:28.641Z,0
2022-09-03T12:15:19.498Z,0
2022-09-03T12:16:30.282Z,0
2022-09-03T12:17:30.261Z,0
2022-09-03T12:18:21.287Z,0
2022-09-03T12:19:33.771Z,0
2022-09-03T12:20:29.649Z,0
2022-09-03T12:21:23.819Z,0
2022-09-03T12:22:21.425Z,0
2022-09-03T12:23:25.201Z,0
2022-09-03T12:24:25.726Z,0
2022-09-03T12:25:22.043Z,0
2022-09-03T12:26:34.382Z,0
2022-09-03T12:27:27.620Z,0
2022-09-03T12:28:29.482Z,0
2022-09-03T12:29:22.047Z,0
2022-09-03T12:30:28.899Z,0
2022-09-03T12:31:25.698Z,0
2022-09-03T12:32:21.653Z,0
2022-09-03T12:33:33.627Z,0
2022-09-03T12:34:28.720Z,0
2022-09-03T12:36:03.990Z,0
2022-09-03T12:36:22.011Z,0
2022-09-03T12:38:09.076Z,0
2022-09-03T12:38:27.675Z,0
2022-09-03T12:40:04.519Z,0
2022-09-03T12:40:33.725Z,0
2022-09-03T12:41:29.059Z,0
2022-09-03T12:42:25.124Z,0
2022-09-03T12:43:55.452Z,0
2022-09-03T12:44:29.393Z,0
2022-09-03T12:45:21.347Z,0
2022-09-03T12:46:24.692Z,0
2022-09-03T12:47:36.391Z,0
2022-09-03T12:48:28.707Z,0
2022-09-03T12:49:31.733Z,0
2022-09-03T12:50:22.827Z,0
2022-09-03T12:52:06.629Z,0
2022-09-03T12:52:28.641Z,0
2022-09-03T12:53:27.596Z,0
2022-09-03T12:54:33.046Z,0
2022-09-03T12:55:28.090Z,0
2022-09-03T12:56:27.576Z,0
2022-09-03T12:57:23.048Z,0
2022-09-03T12:58:29.028Z,0
2022-09-03T12:59:30.843Z,0
2022-09-03T13:00:26.571Z,0
2022-09-03T13:01:24.159Z,0
2022-09-03T13:03:00.015Z,0
2022-09-03T13:03:30.572Z,0
2022-09-03T13:04:19.492Z,0
2022-09-03T13:05:29.820Z,0
2022-09-03T13:06:26.632Z,0
2022-09-03T13:07:24.642Z,0
2022-09-03T13:08:25.472Z,0
2022-09-03T13:09:27.906Z,0
2022-09-03T13:10:23.270Z,0
2022-09-03T13:11:20.957Z,0
2022-09-03T13:12:35.358Z,0
2022-09-03T13:13:25.559Z,0
2022-09-03T13:14:23.808Z,0
2022-09-03T13:15:25.917Z,0
2022-09-03T13:16:25.048Z,0
2022-09-03T13:17:25.635Z,0
2022-09-03T13:18:19.605Z,0
2022-09-03T13:19:23.033Z,0
2022-09-03T13:20:25.651Z,0
2022-09-03T13:21:24.393Z,0
2022-09-03T13:22:25.581Z,0
2022-09-03T13:23:28.830Z,0
2022-09-03T13:24:27.134Z,0
2022-09-03T13:25:19.295Z,0
2022-09-03T13:26:28.238Z,0
2022-09-03T13:27:27.060Z,0
2022-09-03T13:28:24.232Z,0
2022-09-03T13:29:36.650Z,0
2022-09-03T13:30:24.800Z,0
2022-09-03T13:31:23.821Z,0
2022-09-03T13:32:20.939Z,0
2022-09-03T13:33:30.685Z,0
2022-09-03T13:34:25.798Z,0
2022-09-03T13:35:23.176Z,0
2022-09-03T13:36:37.102Z,0
2022-09-03T13:37:27.001Z,0
2022-09-03T13:38:21.135Z,0
2022-09-03T13:39:21.200Z,0
2022-09-03T13:40:33.891Z,0
2022-09-03T13:41:27.006Z,0
2022-09-03T13:42:24.233Z,0
2022-09-03T13:43:31.493Z,0
2022-09-03T13:44:32.153Z,0
2022-09-03T13:45:23.522Z,0
2022-09-03T13:46:21.469Z,0
2022-09-03T13:47:33.977Z,0
2022-09-03T13:48:21.134Z,0
2022-09-03T13:49:26.917Z,0
2022-09-03T13:50:39.396Z,0
2022-09-03T13:51:29.141Z,0
2022-09-03T13:52:20.897Z,0
2022-09-03T13:53:21.208Z,0
2022-09-03T13:54:48.193Z,0
2022-09-03T13:55:27.378Z,0
2022-09-03T13:56:21.797Z,0
2022-09-03T13:57:32.503Z,0
2022-09-03T13:58:27.794Z,0
2022-09-03T13:59:26.789Z,1
2022-09-03T14:00:21.329Z,9
2022-09-03T14:01:33.363Z,10
2022-09-03T14:02:19.872Z,9
2022-09-03T14:03:22.840Z,8
2022-09-03T14:04:32.067Z,10
2022-09-03T14:05:28.526Z,7
2022-09-03T14:06:23.703Z,7
2022-09-03T14:07:21.346Z,10
2022-09-03T14:08:23.760Z,10
2022-09-03T14:09:26.396Z,8
2022-09-03T14:10:21.484Z,5
2022-09-03T14:11:32.342Z,2
2022-09-03T14:12:30.569Z,2
2022-09-03T14:13:27.997Z,2
2022-09-03T14:14:21.796Z,3
2022-09-03T14:15:31.595Z,3
2022-09-03T14:16:29.056Z,2
2022-09-03T14:17:21.465Z,2
2022-09-03T14:18:31.802Z,2
2022-09-03T14:19:30.469Z,2
2022-09-03T14:20:23.506Z,0
2022-09-03T14:21:19.568Z,0
2022-09-03T14:22:34.327Z,0
2022-09-03T14:23:23.082Z,0
2022-09-03T14:24:24.455Z,0
2022-09-03T14:25:31.760Z,0
2022-09-03T14:26:38.121Z,0
2022-09-03T14:27:26.406Z,0
2022-09-03T14:28:19.489Z,0
2022-09-03T14:29:32.049Z,0
2022-09-03T14:30:29.528Z,0
2022-09-03T14:31:21.441Z,0
2022-09-03T14:32:40.767Z,0
2022-09-03T14:33:27.809Z,0
2022-09-03T14:34:25.840Z,0
2022-09-03T14:35:24.453Z,0
2022-09-03T14:36:33.181Z,0
2022-09-03T14:37:23.703Z,0
2022-09-03T14:38:26.152Z,0
2022-09-03T14:39:27.713Z,0
2022-09-03T14:40:30.334Z,0
2022-09-03T14:41:28.748Z,0
2022-09-03T14:42:21.382Z,0
2022-09-03T14:43:26.521Z,0
2022-09-03T14:44:29.009Z,0
2022-09-03T14:45:24.262Z,0
2022-09-03T14:46:24.156Z,0
2022-09-03T14:47:27.844Z,0
2022-09-03T14:48:23.730Z,0
2022-09-03T14:49:21.704Z,0
2022-09-03T14:50:34.585Z,0
2022-09-03T14:51:25.759Z,0
2022-09-03T14:52:26.385Z,0
2022-09-03T14:53:27.324Z,0
2022-09-03T14:54:23.407Z,0
2022-09-03T14:55:22.650Z,0
2022-09-03T14:56:19.900Z,0
2022-09-03T14:57:31.570Z,0
2022-09-03T14:58:25.777Z,0
2022-09-03T14:59:23.720Z,0
2022-09-03T15:00:25.405Z,0
2022-09-03T15:01:21.528Z,0
2022-09-03T15:02:24.741Z,0
2022-09-03T15:03:24.332Z,0
2022-09-03T15:04:20.742Z,0
2022-09-03T15:05:23.623Z,0
2022-09-03T15:06:31.062Z,0
2022-09-03T15:07:27.734Z,0
2022-09-03T15:08:30.001Z,0
2022-09-03T15:09:25.736Z,0
2022-09-03T15:10:25.531Z,0
2022-09-03T15:11:25.251Z,0
2022-09-03T15:12:26.884Z,0
2022-09-03T15:13:26.155Z,0
2022-09-03T15:14:32.802Z,0
2022-09-03T15:15:29.928Z,0
2022-09-03T15:16:23.734Z,0
2022-09-03T15:17:20.766Z,0
2022-09-03T15:18:32.852Z,0
2022-09-03T15:19:26.666Z,0
2022-09-03T15:20:23.102Z,0
2022-09-03T15:21:44.829Z,0
2022-09-03T15:22:24.214Z,0
2022-09-03T15:23:28.174Z,0
2022-09-03T15:24:21.024Z,0
2022-09-03T15:25:23.087Z,0
2022-09-03T15:26:26.697Z,0
2022-09-03T15:27:22.628Z,0
2022-09-03T15:28:33.530Z,0
2022-09-03T15:29:27.073Z,0
2022-09-03T15:30:25.813Z,0
2022-09-03T15:31:19.610Z,0
2022-09-03T15:32:32.095Z,0
2022-09-03T15:33:20.097Z,0
2022-09-03T15:34:21.454Z,0
2022-09-03T15:35:31.705Z,0
2022-09-03T15:36:28.501Z,0
2022-09-03T15:37:25.327Z,0
2022-09-03T15:38:21.798Z,0
2022-09-03T15:39:31.882Z,0
2022-09-03T15:40:25.929Z,0
2022-09-03T15:41:22.277Z,0
2022-09-03T15:42:35.763Z,0
2022-09-03T15:43:31.809Z,0
2022-09-03T15:44:27.227Z,0
2022-09-03T15:45:22.329Z,0
2022-09-03T15:46:24.510Z,0
2022-09-03T15:47:35.178Z,0
2022-09-03T15:48:37.232Z,0
2022-09-03T15:49:33.396Z,0
2022-09-03T15:50:24.171Z,0
2022-09-03T15:51:25.857Z,0
2022-09-03T15:52:19.899Z,0
2022-09-03T15:53:29.732Z,0
2022-09-03T15:54:22.647Z,0
2022-09-03T15:55:26.464Z,0
2022-09-03T15:56:27.590Z,0
2022-09-03T15:57:29.598Z,0
2022-09-03T15:58:25.336Z,0
2022-09-03T15:59:35.097Z,0
2022-09-03T16:00:34.919Z,0
2022-09-03T16:01:26.409Z,0
2022-09-03T16:02:22.729Z,0
2022-09-03T16:03:24.549Z,0
2022-09-03T16:04:30.502Z,0
2022-09-03T16:05:27.521Z,0
2022-09-03T16:06:20.089Z,0
2022-09-03T16:07:31.831Z,0
2022-09-03T16:08:26.978Z,0
2022-09-03T16:09:23.173Z,0
2022-09-03T16:10:33.771Z,0
2022-09-03T16:11:24.262Z,0
2022-09-03T16:12:23.755Z,0
2022-09-03T16:13:20.027Z,0
2022-09-03T16:14:29.717Z,0
2022-09-03T16:15:30.467Z,0
2022-09-03T16:16:30.611Z,0
2022-09-03T16:17:31.585Z,0
2022-09-03T16:18:22.153Z,0
2022-09-03T16:19:24.034Z,0
2022-09-03T16:20:23.132Z,0
2022-09-03T16:21:31.612Z,0
2022-09-03T16:22:41.206Z,0
2022-09-03T16:23:22.255Z,0
2022-09-03T16:24:26.818Z,0
2022-09-03T16:25:27.411Z,0
2022-09-03T16:26:24.727Z,0
2022-09-03T16:27:22.823Z,0
2022-09-03T16:28:31.957Z,0
2022-09-03T16:29:27.865Z,0
2022-09-03T16:30:22.992Z,0
2022-09-03T16:31:27.823Z,0
2022-09-03T16:32:21.342Z,0
2022-09-03T16:33:27.369Z,0
2022-09-03T16:34:19.381Z,0
2022-09-03T16:35:23.596Z,0
2022-09-03T16:36:27.412Z,0
2022-09-03T16:37:21.458Z,0
2022-09-03T16:38:20.896Z,0
2022-09-03T16:39:24.271Z,0
2022-09-03T16:40:26.696Z,0
2022-09-03T16:41:21.571Z,0
2022-09-03T16:42:29.896Z,0
2022-09-03T16:43:40.761Z,0
2022-09-03T16:44:21.988Z,0
2022-09-03T16:45:24.222Z,0
2022-09-03T16:46:32.996Z,0
2022-09-03T16:47:23.514Z,0
2022-09-03T16:48:22.400Z,0
2022-09-03T16:49:23.411Z,0
2022-09-03T16:50:39.080Z,0
2022-09-03T16:51:23.363Z,0
2022-09-03T16:52:37.849Z,0
2022-09-03T16:53:27.997Z,0
2022-09-03T16:54:25.615Z,0
2022-09-03T16:55:20.567Z,0
2022-09-03T16:56:24.600Z,0
2022-09-03T16:57:28.281Z,0
2022-09-03T16:58:37.103Z,0
2022-09-03T16:59:31.685Z,0
2022-09-03T17:00:29.138Z,0
2022-09-03T17:01:27.714Z,0
2022-09-03T17:02:40.122Z,0
2022-09-03T17:03:26.661Z,0
2022-09-03T17:04:23.495Z,0
2022-09-03T17:05:26.566Z,0
2022-09-03T17:06:33.962Z,0
2022-09-03T17:07:30.345Z,0
2022-09-03T17:08:26.016Z,0
2022-09-03T17:09:31.153Z,0
2022-09-03T17:10:34.064Z,0
2022-09-03T17:11:28.752Z,0
2022-09-03T17:12:23.873Z,0
2022-09-03T17:13:33.571Z,0
2022-09-03T17:14:21.905Z,0
2022-09-03T17:15:25.662Z,0
2022-09-03T17:16:24.478Z,0
2022-09-03T17:17:23.441Z,0
2022-09-03T17:18:25.669Z,0
2022-09-03T17:19:23.619Z,0
2022-09-03T17:20:23.057Z,0
2022-09-03T17:21:29.513Z,0
2022-09-03T17:22:27.019Z,0
2022-09-03T17:23:21.704Z,0
2022-09-03T17:24:33.588Z,0
2022-09-03T17:25:20.670Z,0
2022-09-03T17:26:21.717Z,0
2022-09-03T17:27:20.818Z,0
2022-09-03T17:28:28.039Z,0
2022-09-03T17:29:23.943Z,0
2022-09-03T17:30:22.039Z,0
2022-09-03T17:31:22.972Z,0
2022-09-03T17:32:29.665Z,0
2022-09-03T17:33:22.721Z,0
2022-09-03T17:34:25.616Z,0
2022-09-03T17:35:28.707Z,0
2022-09-03T17:36:23.678Z,0
2022-09-03T17:37:22.196Z,0
2022-09-03T17:38:33.069Z,0
2022-09-03T17:39:28.301Z,0
2022-09-03T17:40:21.609Z,0
2022-09-03T17:41:33.600Z,0
2022-09-03T17:42:25.754Z,0
2022-09-03T17:43:29.383Z,0
2022-09-03T17:44:19.633Z,0
2022-09-03T17:45:43.565Z,0
2022-09-03T17:46:27.999Z,0
2022-09-03T17:47:21.609Z,0
2022-09-03T17:48:26.227Z,0
2022-09-03T17:49:28.280Z,0
2022-09-03T17:50:24.014Z,0
2022-09-03T17:51:21.194Z,0
2022-09-03T17:52:32.845Z,0
2022-09-03T17:53:27.142Z,0
2022-09-03T17:54:23.557Z,0
2022-09-03T17:55:22.359Z,0
2022-09-03T17:56:29.250Z,0
2022-09-03T17:57:23.950Z,0
2022-09-03T17:58:21.580Z,0
2022-09-03T17:59:34.321Z,0
2022-09-03T18:00:31.816Z,0
2022-09-03T18:01:23.739Z,0
2022-09-03T18:02:26.486Z,0
2022-09-03T18:03:27.849Z,0
2022-09-03T18:04:27.533Z,0
2022-09-03T18:05:22.401Z,0
2022-09-03T18:06:32.572Z,0
2022-09-03T18:07:26.730Z,0
2022-09-03T18:08:23.839Z,0
2022-09-03T18:09:35.781Z,0
2022-09-03T18:10:25.543Z,0
2022-09-03T18:11:23.872Z,0
2022-09-03T18:12:20.136Z,0
2022-09-03T18:13:29.866Z,0
2022-09-03T18:14:26.118Z,0
2022-09-03T18:15:23.620Z,0
2022-09-03T18:16:21.178Z,0
2022-09-03T18:17:29.827Z,0
2022-09-03T18:18:22.958Z,0
2022-09-03T18:19:21.309Z,0
2022-09-03T18:20:21.546Z,0
2022-09-03T18:21:31.471Z,0
2022-09-03T18:22:23.314Z,0
2022-09-03T18:23:38.245Z,0
2022-09-03T18:24:27.998Z,0
2022-09-03T18:25:25.410Z,0
2022-09-03T18:26:19.803Z,0
2022-09-03T18:27:25.108Z,0
2022-09-03T18:28:28.304Z,0
2022-09-03T18:29:26.728Z,0
2022-09-03T18:30:27.994Z,0
2022-09-03T18:31:28.419Z,0
2022-09-03T18:32:23.778Z,0
2022-09-03T18:33:24.256Z,0
2022-09-03T18:34:30.708Z,0
2022-09-03T18:35:22.948Z,0
2022-09-03T18:36:22.489Z,0
2022-09-03T18:37:25.788Z,0
2022-09-03T18:38:29.229Z,0
2022-09-03T18:39:26.000Z,0
2022-09-03T18:40:20.621Z,0
2022-09-03T18:41:30.521Z,0
2022-09-03T18:42:28.879Z,0
2022-09-03T18:43:26.018Z,0
2022-09-03T18:44:22.519Z,0
2022-09-03T18:45:47.860Z,0
2022-09-03T18:47:54.466Z,0
2022-09-03T18:48:09.045Z,0
2022-09-03T18:48:19.709Z,0
2022-09-03T18:48:22.291Z,0
2022-09-03T18:49:25.794Z,0
2022-09-03T18:50:26.755Z,0
2022-09-03T18:51:29.887Z,0
2022-09-03T18:52:28.316Z,0
2022-09-03T18:53:29.818Z,0
2022-09-03T18:54:23.888Z,0
2022-09-03T18:55:26.409Z,0
2022-09-03T18:56:25.794Z,0
2022-09-03T18:57:21.526Z,0
2022-09-03T18:58:21.695Z,0
2022-09-03T18:59:20.040Z,0
2022-09-03T19:00:28.985Z,0
2022-09-03T19:01:23.910Z,0
2022-09-03T19:02:29.881Z,0
2022-09-03T19:03:26.821Z,0
2022-09-03T19:04:22.494Z,0
2022-09-03T19:05:25.999Z,0
2022-09-03T19:06:23.692Z,0
2022-09-03T19:07:28.218Z,0
2022-09-03T19:08:20.696Z,0
2022-09-03T19:09:31.151Z,0
2022-09-03T19:10:28.691Z,0
2022-09-03T19:11:21.480Z,0
2022-09-03T19:12:35.124Z,0
2022-09-03T19:13:23.420Z,0
2022-09-03T19:14:28.395Z,0
2022-09-03T19:15:22.058Z,0
2022-09-03T19:16:35.016Z,0
2022-09-03T19:17:21.345Z,0
2022-09-03T19:18:28.033Z,0
2022-09-03T19:19:34.599Z,0
2022-09-03T19:20:28.740Z,0
2022-09-03T19:21:24.064Z,0
2022-09-03T19:22:21.064Z,0
2022-09-03T19:23:29.828Z,0
2022-09-03T19:24:27.201Z,0
2022-09-03T19:25:21.940Z,0
2022-09-03T19:26:21.832Z,0
2022-09-03T19:28:09.975Z,0
2022-09-03T19:28:24.138Z,0
2022-09-03T19:29:21.883Z,0
2022-09-03T19:30:31.621Z,0
2022-09-03T19:31:26.968Z,0
2022-09-03T19:32:23.725Z,0
2022-09-03T19:33:27.799Z,0
2022-09-03T19:34:30.934Z,0
2022-09-03T19:35:27.014Z,0
2022-09-03T19:36:20.013Z,0
2022-09-03T19:37:32.080Z,0
2022-09-03T19:38:28.102Z,0
2022-09-03T19:39:24.122Z,0
2022-09-03T19:40:33.519Z,0
2022-09-03T19:41:22.486Z,0
2022-09-03T19:42:27.788Z,0
2022-09-03T19:43:22.344Z,0
2022-09-03T19:44:32.376Z,0
2022-09-03T19:45:26.491Z,0
2022-09-03T19:46:24.562Z,0
2022-09-03T19:47:41.916Z,0
2022-09-03T19:48:30.746Z,0
2022-09-03T19:49:26.757Z,0
2022-09-03T19:50:19.990Z,0
2022-09-03T19:51:22.256Z,0
2022-09-03T19:52:27.663Z,0
2022-09-03T19:53:24.857Z,0
2022-09-03T19:54:32.565Z,0
2022-09-03T19:55:31.768Z,0
2022-09-03T19:56:24.977Z,0
2022-09-03T19:57:35.120Z,0
2022-09-03T19:58:41.967Z,0
2022-09-03T19:59:28.454Z,0
2022-09-03T20:00:29.594Z,0
2022-09-03T20:01:36.913Z,0
2022-09-03T20:02:35.361Z,0
2022-09-03T20:03:31.644Z,0
2022-09-03T20:04:20.867Z,0
2022-09-03T20:05:45.608Z,0
2022-09-03T20:06:27.036Z,0
2022-09-03T20:07:24.407Z,0
2022-09-03T20:08:31.965Z,0
2022-09-03T20:09:29.633Z,0
2022-09-03T20:10:25.707Z,0
2022-09-03T20:11:21.548Z,0
2022-09-03T20:12:32.242Z,0
2022-09-03T20:13:27.041Z,0
2022-09-03T20:14:23.450Z,0
2022-09-03T20:15:39.349Z,0
2022-09-03T20:16:43.243Z,0
2022-09-03T20:17:28.109Z,0
2022-09-03T20:18:19.870Z,0
2022-09-03T20:19:21.416Z,0
2022-09-03T20:20:27.174Z,0
2022-09-03T20:21:27.139Z,0
2022-09-03T20:22:23.720Z,0
2022-09-03T20:23:31.957Z,0
2022-09-03T20:24:41.492Z,0
2022-09-03T20:25:22.345Z,0
2022-09-03T20:26:25.037Z,0
2022-09-03T20:27:28.067Z,0
2022-09-03T20:28:21.956Z,0
2022-09-03T20:29:24.891Z,0
2022-09-03T20:30:29.767Z,0
2022-09-03T20:31:23.981Z,0
2022-09-03T20:32:23.437Z,0
2022-09-03T20:33:22.967Z,0
2022-09-03T20:34:22.880Z,0
2022-09-03T20:35:21.970Z,0
2022-09-03T20:36:31.517Z,0
2022-09-03T20:37:28.833Z,0
2022-09-03T20:38:26.009Z,0
2022-09-03T20:39:22.022Z,0
2022-09-03T20:40:25.762Z,0
2022-09-03T20:41:42.682Z,0
2022-09-03T20:42:27.411Z,0
2022-09-03T20:43:33.718Z,0
2022-09-03T20:44:22.662Z,0
2022-09-03T20:45:24.208Z,0
2022-09-03T20:46:26.112Z,0
2022-09-03T20:47:28.481Z,0
2022-09-03T20:48:35.071Z,0
2022-09-03T20:49:25.950Z,0
2022-09-03T20:50:34.249Z,0
2022-09-03T20:51:20.895Z,0
2022-09-03T20:52:24.202Z,0
2022-09-03T20:53:19.844Z,0
2022-09-03T20:54:36.594Z,0
2022-09-03T20:55:26.205Z,0
2022-09-03T20:56:26.514Z,0
2022-09-03T20:57:22.749Z,0
2022-09-03T20:58:26.225Z,0
2022-09-03T20:59:25.160Z,0
2022-09-03T21:00:22.428Z,0
2022-09-03T21:01:35.997Z,0
2022-09-03T21:02:26.165Z,0
2022-09-03T21:03:25.543Z,0
2022-09-03T21:04:24.296Z,0
2022-09-03T21:05:32.083Z,0
2022-09-03T21:06:25.834Z,0
2022-09-03T21:07:22.421Z,0